createdAt,value
2022-12-22T00:02:06.822Z,6.72
2022-12-22T00:05:12.511Z,6.57
2022-12-22T00:08:18.382Z,6.78
2022-12-22T00:11:29.454Z,7.20
2022-12-22T00:14:35.460Z,6.60
2022-12-22T00:17:44.248Z,6.38
2022-12-22T00:20:50.000Z,7.38
2022-12-22T00:23:55.837Z,7.28
2022-12-22T00:27:04.035Z,7.20
2022-12-22T00:30:09.850Z,7.78
2022-12-22T00:33:15.669Z,6.60
2022-12-22T00:36:22.085Z,6.75
2022-12-22T00:39:31.065Z,6.55
2022-12-22T00:42:37.949Z,6.72
2022-12-22T00:45:44.212Z,6.32
2022-12-22T00:48:50.234Z,6.70
2022-12-22T00:51:56.141Z,6.30
2022-12-22T00:55:01.959Z,6.78
2022-12-22T00:58:09.144Z,6.65
2022-12-22T01:01:14.841Z,6.90
2022-12-22T01:04:20.683Z,8.25
2022-12-22T01:07:29.660Z,7.85
2022-12-22T01:10:35.570Z,8.52
2022-12-22T01:13:42.738Z,7.65
2022-12-22T01:16:50.356Z,8.52
2022-12-22T01:19:56.229Z,8.70
2022-12-22T01:23:02.145Z,8.45
2022-12-22T01:26:08.033Z,8.82
2022-12-22T01:29:15.353Z,9.13
2022-12-22T01:32:21.124Z,9.60
2022-12-22T01:35:34.992Z,10.25
2022-12-22T01:38:40.868Z,10.52
2022-12-22T01:41:46.875Z,10.50
2022-12-22T01:44:54.054Z,11.40
2022-12-22T01:47:59.801Z,10.73
2022-12-22T01:51:06.037Z,12.05
2022-12-22T01:54:12.645Z,11.57
2022-12-22T01:57:20.300Z,11.55
2022-12-22T02:00:28.832Z,12.55
2022-12-22T02:03:35.336Z,11.43
2022-12-22T02:06:47.389Z,12.50
2022-12-22T02:10:03.515Z,12.20
2022-12-22T02:13:19.288Z,12.23
2022-12-22T02:16:33.393Z,12.80
2022-12-22T02:20:06.138Z,13.38
2022-12-22T02:23:19.897Z,12.55
2022-12-22T02:26:42.995Z,13.27
2022-12-22T02:29:53.182Z,12.98
2022-12-22T02:33:08.910Z,13.18
2022-12-22T02:36:22.620Z,12.02
2022-12-22T02:39:36.072Z,12.10
2022-12-22T02:42:50.897Z,11.70
2022-12-22T02:46:05.144Z,11.48
2022-12-22T02:49:18.687Z,11.52
2022-12-22T02:52:31.361Z,11.23
2022-12-22T02:55:39.241Z,10.85
2022-12-22T02:58:49.613Z,10.60
2022-12-22T03:01:56.641Z,9.85
2022-12-22T03:05:02.417Z,9.27
2022-12-22T03:08:08.907Z,9.27
2022-12-22T03:11:14.744Z,9.15
2022-12-22T03:14:22.125Z,9.07
2022-12-22T03:17:27.586Z,8.90
2022-12-22T03:20:33.273Z,8.65
2022-12-22T03:23:39.055Z,8.68
2022-12-22T03:26:27.588Z,9.10
2022-12-22T03:29:17.140Z,9.50
2022-12-22T03:32:05.575Z,8.55
2022-12-22T03:34:53.758Z,9.15
2022-12-22T03:37:41.901Z,9.13
2022-12-22T03:40:31.049Z,9.63
2022-12-22T03:43:37.172Z,8.63
2022-12-22T03:46:32.902Z,9.25
2022-12-22T03:49:22.939Z,9.23
2022-12-22T03:52:11.101Z,10.05
2022-12-22T03:54:59.243Z,8.80
2022-12-22T03:57:47.399Z,8.55
2022-12-22T04:00:35.579Z,8.52
2022-12-22T04:03:25.055Z,9.00
2022-12-22T04:06:13.283Z,8.10
2022-12-22T04:09:04.621Z,7.93
2022-12-22T04:12:10.548Z,7.78
2022-12-22T04:14:58.711Z,7.75
2022-12-22T04:17:46.871Z,8.15
2022-12-22T04:20:36.530Z,7.85
2022-12-22T04:23:24.868Z,8.30
2022-12-22T04:26:13.098Z,7.38
2022-12-22T04:29:01.382Z,7.18
2022-12-22T04:31:49.650Z,7.47
2022-12-22T04:34:37.913Z,7.22
2022-12-22T04:37:27.430Z,7.22
2022-12-22T04:40:15.692Z,7.35
2022-12-22T04:43:04.023Z,6.88
2022-12-22T04:45:53.893Z,6.90
2022-12-22T04:48:42.130Z,6.82
2022-12-22T04:51:30.394Z,6.93
2022-12-22T04:54:19.881Z,6.90
2022-12-22T04:57:08.078Z,6.75
2022-12-22T04:59:56.279Z,7.05
2022-12-22T05:02:44.492Z,6.72
2022-12-22T05:05:32.763Z,7.50
2022-12-22T05:08:20.922Z,7.30
2022-12-22T05:11:10.680Z,7.07
2022-12-22T05:14:05.224Z,7.43
2022-12-22T05:16:55.348Z,6.50
2022-12-22T05:19:43.581Z,6.85
2022-12-22T05:22:31.758Z,7.20
2022-12-22T05:25:20.985Z,6.85
2022-12-22T05:28:10.474Z,7.20
2022-12-22T05:30:58.945Z,7.20
2022-12-22T05:33:48.152Z,7.47
2022-12-22T05:36:36.763Z,7.63
2022-12-22T05:39:24.946Z,7.55
2022-12-22T05:42:13.079Z,8.10
2022-12-22T05:45:03.313Z,7.57
2022-12-22T05:47:52.993Z,8.07
2022-12-22T05:50:41.148Z,7.13
2022-12-22T05:53:29.411Z,7.88
2022-12-22T05:56:17.542Z,7.65
2022-12-22T05:59:05.789Z,7.88
2022-12-22T06:01:55.308Z,7.82
2022-12-22T06:04:43.511Z,8.48
2022-12-22T06:07:31.652Z,8.18
2022-12-22T06:10:20.132Z,8.88
2022-12-22T06:13:08.280Z,9.32
2022-12-22T06:15:56.489Z,9.23
2022-12-22T06:18:46.004Z,8.80
2022-12-22T06:21:34.180Z,9.63
2022-12-22T06:24:22.349Z,8.85
2022-12-22T06:27:11.098Z,10.07
2022-12-22T06:29:59.230Z,9.68
2022-12-22T06:32:51.332Z,9.32
2022-12-22T06:35:40.812Z,9.82
2022-12-22T06:38:29.260Z,9.13
2022-12-22T06:41:37.720Z,9.38
2022-12-22T06:44:24.943Z,9.57
2022-12-22T06:47:13.194Z,10.20
2022-12-22T06:50:01.360Z,10.20
2022-12-22T06:52:50.857Z,10.73
2022-12-22T06:55:39.400Z,10.20
2022-12-22T06:58:27.589Z,10.25
2022-12-22T07:01:15.809Z,9.60
2022-12-22T07:04:04.154Z,10.00
2022-12-22T07:06:52.422Z,10.35
2022-12-22T07:09:41.918Z,11.15
2022-12-22T07:12:30.069Z,11.05
2022-12-22T07:15:18.310Z,10.18
2022-12-22T07:18:06.683Z,10.32
2022-12-22T07:20:54.808Z,11.38
2022-12-22T07:23:43.469Z,10.90
2022-12-22T07:26:33.046Z,11.60
2022-12-22T07:29:21.368Z,10.88
2022-12-22T07:32:09.782Z,11.05
2022-12-22T07:35:04.777Z,11.43
2022-12-22T07:37:53.588Z,11.25
2022-12-22T07:40:42.744Z,11.57
2022-12-22T07:43:32.027Z,13.40
2022-12-22T07:46:20.200Z,12.35
2022-12-22T07:49:26.740Z,12.98
2022-12-22T07:52:14.910Z,11.23
2022-12-22T07:55:03.076Z,11.25
2022-12-22T07:57:51.610Z,11.40
2022-12-22T08:00:41.085Z,11.02
2022-12-22T08:03:29.660Z,11.80
2022-12-22T08:06:18.120Z,11.65
2022-12-22T08:09:07.581Z,12.07
2022-12-22T08:11:55.804Z,10.18
2022-12-22T08:14:45.888Z,11.27
2022-12-22T08:17:35.471Z,10.80
2022-12-22T08:20:23.597Z,10.82
2022-12-22T08:23:11.720Z,10.88
2022-12-22T08:26:04.765Z,10.18
2022-12-22T08:28:57.858Z,10.07
2022-12-22T08:31:46.373Z,9.50
2022-12-22T08:34:36.136Z,10.23
2022-12-22T08:37:27.499Z,10.40
2022-12-22T08:40:18.937Z,9.95
2022-12-22T08:43:10.451Z,10.27
2022-12-22T08:45:58.633Z,10.55
2022-12-22T08:48:46.754Z,9.52
2022-12-22T08:51:36.313Z,9.68
2022-12-22T08:54:24.578Z,10.05
2022-12-22T08:57:12.759Z,9.93
2022-12-22T09:00:01.028Z,10.32
2022-12-22T09:02:49.326Z,10.00
2022-12-22T09:05:38.669Z,10.25
2022-12-22T09:08:28.150Z,9.25
2022-12-22T09:11:17.028Z,8.90
2022-12-22T09:14:05.958Z,9.27
2022-12-22T09:16:54.263Z,8.68
2022-12-22T09:19:42.424Z,8.05
2022-12-22T09:22:30.607Z,8.07
2022-12-22T09:25:20.148Z,8.65
2022-12-22T09:28:08.545Z,8.70
2022-12-22T09:30:56.685Z,8.50
2022-12-22T09:33:44.840Z,8.18
2022-12-22T09:36:33.765Z,9.02
2022-12-22T09:39:28.327Z,8.95
2022-12-22T09:42:21.548Z,9.32
2022-12-22T09:45:20.011Z,9.27
2022-12-22T09:48:13.110Z,8.70
2022-12-22T09:51:02.510Z,7.30
2022-12-22T09:53:55.030Z,7.97
2022-12-22T09:56:44.243Z,8.00
2022-12-22T09:59:33.740Z,7.13
2022-12-22T10:02:29.793Z,7.25
2022-12-22T10:05:28.550Z,8.20
2022-12-22T10:08:22.711Z,7.63
2022-12-22T10:11:15.537Z,7.68
2022-12-22T10:14:03.755Z,7.70
2022-12-22T10:17:17.257Z,7.15
2022-12-22T10:20:22.044Z,6.15
2022-12-22T10:23:19.165Z,6.50
2022-12-22T10:26:29.088Z,6.05
2022-12-22T10:29:19.660Z,5.95
2022-12-22T10:32:16.430Z,5.75
2022-12-22T10:35:07.403Z,5.60
2022-12-22T10:37:55.603Z,5.60
2022-12-22T10:40:45.822Z,5.35
2022-12-22T10:43:38.486Z,5.37
2022-12-22T10:46:35.104Z,5.70
2022-12-22T10:49:27.424Z,5.57
2022-12-22T10:52:20.118Z,5.70
2022-12-22T10:55:18.639Z,5.22
2022-12-22T10:58:17.847Z,4.55
2022-12-22T11:01:06.563Z,4.70
2022-12-22T11:03:54.976Z,4.35
2022-12-22T11:06:45.133Z,4.50
2022-12-22T11:09:35.500Z,4.22
2022-12-22T11:12:32.309Z,4.13
2022-12-22T11:15:27.936Z,4.40
2022-12-22T11:18:33.111Z,3.50
2022-12-22T11:21:28.161Z,3.40
2022-12-22T11:24:30.368Z,3.50
2022-12-22T11:27:29.049Z,3.60
2022-12-22T11:30:20.964Z,3.80
2022-12-22T11:33:23.246Z,3.50
2022-12-22T11:36:19.798Z,3.38
2022-12-22T11:39:13.601Z,6.85
2022-12-22T11:42:14.029Z,5.15
2022-12-22T11:45:20.441Z,6.28
2022-12-22T11:48:27.418Z,16.05
2022-12-22T11:51:27.685Z,8.82
2022-12-22T11:54:43.691Z,5.30
2022-12-22T11:57:43.246Z,3.80
2022-12-22T12:01:12.681Z,3.13
2022-12-22T12:04:23.043Z,3.08
2022-12-22T12:07:25.990Z,2.95
2022-12-22T12:10:19.230Z,3.10
2022-12-22T12:13:19.478Z,3.58
2022-12-22T12:16:20.978Z,3.70
2022-12-22T12:19:36.481Z,3.78
2022-12-22T12:22:35.048Z,4.38
2022-12-22T12:25:29.621Z,4.38
2022-12-22T12:28:31.264Z,4.43
2022-12-22T12:31:26.280Z,4.32
2022-12-22T12:34:17.957Z,4.70
2022-12-22T12:40:12.135Z,4.20
2022-12-22T12:43:01.401Z,3.63
2022-12-22T12:45:51.360Z,4.20
2022-12-22T12:48:40.516Z,3.95
2022-12-22T12:51:47.401Z,3.75
2022-12-22T12:54:38.921Z,3.40
2022-12-22T12:57:46.481Z,3.70
2022-12-22T13:00:52.524Z,3.55
2022-12-22T13:04:03.122Z,4.30
2022-12-22T13:06:54.269Z,3.05
2022-12-22T13:10:18.931Z,3.17
2022-12-22T13:13:10.873Z,3.33
2022-12-22T13:16:25.683Z,3.40
2022-12-22T13:19:24.038Z,3.50
2022-12-22T13:22:12.851Z,3.22
2022-12-22T13:25:03.981Z,3.60
2022-12-22T13:30:41.122Z,4.07
2022-12-22T13:33:33.165Z,4.13
2022-12-22T13:36:28.784Z,3.97
2022-12-22T13:39:17.420Z,4.63
2022-12-22T13:42:08.166Z,4.93
2022-12-22T13:44:56.444Z,4.85
2022-12-22T13:47:45.164Z,4.65
2022-12-22T13:50:38.279Z,5.47
2022-12-22T13:56:46.077Z,6.50
2022-12-22T13:59:36.180Z,6.60
2022-12-22T14:02:24.832Z,7.10
2022-12-22T14:05:15.602Z,7.30
2022-12-22T14:08:05.635Z,7.78
2022-12-22T14:10:56.780Z,7.03
2022-12-22T14:16:33.506Z,7.68
2022-12-22T14:19:23.331Z,7.55
2022-12-22T14:22:16.065Z,7.63
2022-12-22T14:25:10.181Z,7.43
2022-12-22T14:28:00.698Z,7.57
2022-12-22T14:30:54.496Z,6.75
2022-12-22T14:33:53.240Z,7.88
2022-12-22T14:36:46.152Z,7.55
2022-12-22T14:39:34.749Z,7.20
2022-12-22T14:42:23.313Z,8.40
2022-12-22T14:45:17.375Z,8.60
2022-12-22T14:48:09.967Z,8.48
2022-12-22T14:50:58.428Z,9.00
2022-12-22T14:53:49.097Z,9.38
2022-12-22T14:56:49.720Z,9.48
2022-12-22T14:59:38.090Z,9.05
2022-12-22T15:02:36.587Z,9.02
2022-12-22T15:05:28.662Z,9.80
2022-12-22T15:08:38.671Z,9.30
2022-12-22T15:11:27.144Z,9.90
2022-12-22T15:14:17.498Z,10.25
2022-12-22T15:17:07.445Z,10.30
2022-12-22T15:19:59.446Z,9.85
2022-12-22T15:22:48.126Z,10.23
2022-12-22T15:25:36.390Z,9.55
2022-12-22T15:28:24.717Z,10.43
2022-12-22T15:31:15.878Z,10.52
2022-12-22T15:34:08.116Z,9.88
2022-12-22T15:36:58.260Z,10.77
2022-12-22T15:39:46.731Z,10.30
2022-12-22T15:42:34.897Z,10.35
2022-12-22T15:45:23.864Z,10.25
2022-12-22T15:48:18.349Z,10.18
2022-12-22T15:51:08.927Z,10.30
2022-12-22T15:53:59.352Z,9.88
2022-12-22T15:56:48.522Z,11.50
2022-12-22T15:59:36.831Z,11.13
2022-12-22T16:02:25.174Z,11.60
2022-12-22T16:05:13.967Z,11.73
2022-12-22T16:08:03.150Z,12.32
2022-12-22T16:10:52.794Z,12.60
2022-12-22T16:13:41.071Z,12.45
2022-12-22T16:16:29.275Z,13.77
2022-12-22T16:19:18.454Z,12.95
2022-12-22T16:22:06.717Z,13.43
2022-12-22T16:24:54.984Z,14.15
2022-12-22T16:27:47.725Z,13.45
2022-12-22T16:30:36.000Z,12.65
2022-12-22T16:33:24.285Z,12.93
2022-12-22T16:36:12.732Z,12.63
2022-12-22T16:39:00.915Z,12.60
2022-12-22T16:41:59.865Z,14.00
2022-12-22T16:45:02.188Z,14.25
2022-12-22T16:47:52.735Z,15.93
2022-12-22T16:50:44.603Z,25.00
2022-12-22T16:53:32.802Z,15.23
2022-12-22T16:56:23.357Z,14.85
2022-12-22T16:59:11.566Z,13.32
2022-12-22T17:02:01.241Z,14.55
2022-12-22T17:04:50.443Z,21.05
2022-12-22T17:07:38.642Z,14.77
2022-12-22T17:10:28.589Z,13.77
2022-12-22T17:13:17.450Z,15.35
2022-12-22T17:16:06.290Z,15.43
2022-12-22T17:18:55.877Z,14.15
2022-12-22T17:21:44.115Z,12.48
2022-12-22T17:24:32.343Z,13.57
2022-12-22T17:27:24.301Z,13.70
2022-12-22T17:30:18.564Z,13.50
2022-12-22T17:33:07.481Z,13.55
2022-12-22T17:35:58.656Z,16.02
2022-12-22T17:41:35.396Z,13.68
2022-12-22T17:44:27.238Z,13.60
2022-12-22T17:47:25.179Z,16.08
2022-12-22T17:50:21.075Z,22.98
2022-12-22T17:53:15.491Z,21.17
2022-12-22T17:56:08.995Z,18.48
2022-12-22T17:58:57.678Z,19.33
2022-12-22T18:01:46.251Z,16.85
2022-12-22T18:04:34.575Z,16.70
2022-12-22T18:07:25.179Z,15.90
2022-12-22T18:10:27.683Z,14.60
2022-12-22T18:13:18.761Z,14.75
2022-12-22T18:18:55.751Z,17.90
2022-12-22T18:21:44.895Z,19.92
2022-12-22T18:24:33.065Z,18.73
2022-12-22T18:27:23.469Z,14.85
2022-12-22T18:30:18.318Z,13.70
2022-12-22T18:33:06.457Z,15.23
2022-12-22T18:35:54.994Z,14.63
2022-12-22T18:38:43.335Z,13.82
2022-12-22T18:41:34.793Z,13.30
2022-12-22T18:44:24.518Z,13.30
2022-12-22T18:47:12.749Z,12.70
2022-12-22T18:50:02.899Z,11.73
2022-12-22T18:52:52.092Z,12.97
2022-12-22T18:55:40.251Z,13.43
2022-12-22T18:58:28.579Z,13.18
2022-12-22T19:01:23.399Z,16.08
2022-12-22T19:04:11.806Z,12.32
2022-12-22T19:07:00.076Z,14.07
2022-12-22T19:09:48.373Z,13.25
2022-12-22T19:12:36.644Z,11.98
2022-12-22T19:15:28.771Z,11.27
2022-12-22T19:18:25.956Z,13.65
2022-12-22T19:21:15.686Z,12.13
2022-12-22T19:24:03.851Z,11.43
2022-12-22T19:26:52.021Z,10.93
2022-12-22T19:29:40.294Z,12.32
2022-12-22T19:32:30.968Z,10.02
2022-12-22T19:35:22.750Z,10.23
2022-12-22T19:38:20.633Z,9.90
2022-12-22T19:41:20.883Z,12.10
2022-12-22T19:44:17.831Z,12.03
2022-12-22T19:47:17.126Z,12.30
2022-12-22T19:50:06.020Z,11.70
2022-12-22T19:52:56.329Z,11.30
2022-12-22T19:55:47.103Z,8.13
2022-12-22T19:58:38.784Z,9.93
2022-12-22T20:01:27.179Z,8.95
2022-12-22T20:04:15.419Z,9.43
2022-12-22T20:07:03.733Z,9.68
2022-12-22T20:09:53.633Z,9.90
2022-12-22T20:12:45.138Z,9.60
2022-12-22T20:15:37.206Z,9.90
2022-12-22T20:18:29.176Z,9.80
2022-12-22T20:21:22.602Z,9.60
2022-12-22T20:24:20.373Z,10.15
2022-12-22T20:27:18.535Z,9.52
2022-12-22T20:30:07.732Z,8.93
2022-12-22T20:32:55.915Z,9.15
2022-12-22T20:35:45.620Z,9.30
2022-12-22T20:38:35.458Z,8.98
2022-12-22T20:41:23.809Z,9.52
2022-12-22T20:44:13.307Z,9.82
2022-12-22T20:47:01.619Z,8.68
2022-12-22T20:49:49.825Z,8.70
2022-12-22T20:52:38.000Z,8.77
2022-12-22T20:55:28.363Z,8.02
2022-12-22T20:58:19.117Z,8.70
2022-12-22T21:01:08.758Z,11.00
2022-12-22T21:03:56.996Z,9.90
2022-12-22T21:06:47.969Z,9.35
2022-12-22T21:09:36.164Z,9.10
2022-12-22T21:12:24.287Z,9.77
2022-12-22T21:15:18.698Z,8.88
2022-12-22T21:18:14.960Z,9.60
2022-12-22T21:21:03.109Z,9.52
2022-12-22T21:23:51.872Z,10.38
2022-12-22T21:26:42.994Z,9.35
2022-12-22T21:32:19.246Z,9.25
2022-12-22T21:35:10.447Z,9.25
2022-12-22T21:40:47.693Z,8.68
2022-12-22T21:43:35.855Z,10.18
2022-12-22T21:46:24.021Z,9.95
2022-12-22T21:49:19.567Z,10.15
2022-12-22T21:52:09.244Z,10.07
2022-12-22T21:54:57.387Z,10.27
2022-12-22T21:57:45.635Z,9.82
2022-12-22T22:00:34.907Z,9.13
2022-12-22T22:03:23.113Z,10.10
2022-12-22T22:06:11.271Z,9.90
2022-12-22T22:09:00.839Z,10.45
2022-12-22T22:12:06.648Z,9.82
2022-12-22T22:14:54.829Z,9.52
2022-12-22T22:17:43.537Z,9.02
2022-12-22T22:20:33.125Z,9.27
2022-12-22T22:23:21.508Z,10.25
2022-12-22T22:26:11.728Z,8.95
2022-12-22T22:28:59.793Z,9.57
2022-12-22T22:31:48.021Z,9.60
2022-12-22T22:34:36.144Z,9.27
2022-12-22T22:37:24.319Z,8.73
2022-12-22T22:40:15.498Z,9.02
2022-12-22T22:45:53.003Z,8.98
2022-12-22T22:48:41.161Z,9.13
2022-12-22T22:51:29.451Z,10.60
2022-12-22T22:54:17.641Z,9.63
2022-12-22T22:57:05.943Z,9.60
2022-12-22T22:59:55.481Z,9.15
2022-12-22T23:02:44.463Z,10.00
2022-12-22T23:05:32.883Z,9.57
2022-12-22T23:08:21.049Z,9.57
2022-12-22T23:11:14.954Z,11.15
2022-12-22T23:14:03.214Z,9.52
2022-12-22T23:16:52.868Z,9.93
2022-12-22T23:19:41.301Z,10.48
2022-12-22T23:22:29.747Z,10.50
2022-12-22T23:25:18.071Z,10.55
2022-12-22T23:28:06.455Z,10.90
2022-12-22T23:30:54.800Z,10.50
2022-12-22T23:33:44.367Z,11.30
2022-12-22T23:36:32.888Z,12.02
2022-12-22T23:39:21.046Z,11.77
2022-12-22T23:42:09.211Z,11.88
2022-12-22T23:44:57.370Z,11.95
2022-12-22T23:47:46.884Z,12.18
2022-12-22T23:50:37.344Z,12.50
2022-12-22T23:53:25.482Z,12.57
2022-12-22T23:56:13.689Z,12.43
2022-12-22T23:59:01.951Z,13.77
